createdAt,value
2018-11-28T00:02:01.248Z,7.67
2018-11-28T00:04:28.486Z,7.50
2018-11-28T00:06:55.726Z,7.47
2018-11-28T00:09:22.998Z,8.70
2018-11-28T00:11:50.229Z,6.37
2018-11-28T00:14:17.455Z,5.90
2018-11-28T00:16:44.714Z,5.87
2018-11-28T00:19:11.934Z,9.57
2018-11-28T00:21:39.160Z,3.73
2018-11-28T00:24:06.415Z,6.97
2018-11-28T00:26:33.644Z,6.43
2018-11-28T00:29:00.860Z,5.77
2018-11-28T00:31:28.124Z,6.33
2018-11-28T00:33:55.402Z,5.33
2018-11-28T00:36:22.636Z,7.97
2018-11-28T00:38:49.903Z,6.00
2018-11-28T00:41:17.120Z,6.87
2018-11-28T00:43:44.373Z,4.73
2018-11-28T00:46:11.644Z,5.30
2018-11-28T00:48:38.848Z,5.07
2018-11-28T00:51:06.112Z,6.83
2018-11-28T00:53:33.398Z,6.47
2018-11-28T00:56:00.621Z,6.50
2018-11-28T00:58:27.929Z,6.43
2018-11-28T01:00:55.205Z,5.83
2018-11-28T01:03:22.453Z,6.97
2018-11-28T01:05:50.618Z,5.87
2018-11-28T01:08:17.949Z,6.67
2018-11-28T01:10:45.189Z,6.03
2018-11-28T01:13:12.404Z,7.57
2018-11-28T01:15:39.689Z,5.83
2018-11-28T01:18:06.929Z,7.17
2018-11-28T01:20:34.192Z,5.47
2018-11-28T01:23:01.449Z,5.87
2018-11-28T01:25:28.659Z,6.90
2018-11-28T01:27:55.909Z,5.10
2018-11-28T01:30:23.937Z,6.83
2018-11-28T01:32:51.271Z,7.40
2018-11-28T01:35:19.359Z,6.33
2018-11-28T01:37:46.726Z,6.57
2018-11-28T01:40:21.950Z,8.27
2018-11-28T01:42:49.240Z,5.57
2018-11-28T01:45:17.411Z,5.57
2018-11-28T01:47:45.365Z,9.03
2018-11-28T01:50:13.658Z,5.90
2018-11-28T01:52:40.878Z,4.93
2018-11-28T01:55:12.013Z,5.17
2018-11-28T01:57:39.288Z,6.17
2018-11-28T02:00:09.057Z,5.70
2018-11-28T02:02:36.355Z,4.37
2018-11-28T02:05:04.320Z,5.33
2018-11-28T02:07:31.565Z,5.83
2018-11-28T02:09:58.788Z,5.37
2018-11-28T02:12:26.027Z,6.50
2018-11-28T02:14:53.249Z,5.40
2018-11-28T02:17:20.483Z,4.93
2018-11-28T02:19:47.770Z,6.20
2018-11-28T02:22:15.667Z,6.07
2018-11-28T02:24:42.928Z,7.07
2018-11-28T02:27:10.201Z,6.27
2018-11-28T02:29:37.466Z,7.70
2018-11-28T02:32:05.147Z,5.53
2018-11-28T02:34:32.436Z,9.00
2018-11-28T02:36:59.679Z,6.43
2018-11-28T02:39:26.902Z,7.63
2018-11-28T02:41:54.209Z,6.63
2018-11-28T02:44:21.440Z,7.73
2018-11-28T02:46:49.481Z,4.80
2018-11-28T02:49:16.718Z,5.30
2018-11-28T02:51:43.972Z,4.83
2018-11-28T02:54:11.297Z,5.63
2018-11-28T02:56:38.565Z,6.93
2018-11-28T02:59:05.802Z,8.30
2018-11-28T03:01:33.020Z,5.30
2018-11-28T03:04:00.329Z,6.70
2018-11-28T03:06:27.641Z,5.80
2018-11-28T03:08:54.893Z,5.30
2018-11-28T03:11:22.146Z,5.83
2018-11-28T03:13:49.862Z,5.23
2018-11-28T03:16:18.442Z,7.90
2018-11-28T03:18:46.447Z,6.77
2018-11-28T03:21:13.901Z,6.27
2018-11-28T03:23:41.161Z,5.17
2018-11-28T03:26:08.480Z,7.43
2018-11-28T03:28:35.781Z,7.97
2018-11-28T03:31:03.077Z,6.30
2018-11-28T03:33:30.341Z,8.43
2018-11-28T03:35:57.606Z,6.83
2018-11-28T03:38:24.869Z,7.77
2018-11-28T03:40:52.298Z,8.27
2018-11-28T03:43:19.551Z,5.90
2018-11-28T03:45:46.805Z,9.97
2018-11-28T03:48:14.128Z,7.33
2018-11-28T03:50:41.404Z,6.73
2018-11-28T03:53:08.671Z,6.87
2018-11-28T03:55:35.989Z,9.00
2018-11-28T03:58:03.253Z,9.10
2018-11-28T04:00:30.497Z,6.30
2018-11-28T04:02:57.756Z,9.03
2018-11-28T04:05:25.043Z,8.50
2018-11-28T04:07:52.961Z,10.83
2018-11-28T04:10:20.265Z,6.70
2018-11-28T04:12:47.505Z,7.87
2018-11-28T04:15:16.051Z,8.60
2018-11-28T04:17:43.354Z,10.03
2018-11-28T04:20:12.118Z,11.27
2018-11-28T04:22:39.356Z,7.50
2018-11-28T04:25:07.940Z,6.83
2018-11-28T04:27:35.201Z,7.83
2018-11-28T04:30:02.491Z,6.83
2018-11-28T04:32:29.794Z,11.40
2018-11-28T04:34:57.029Z,8.23
2018-11-28T04:37:24.269Z,6.23
2018-11-28T04:39:51.601Z,6.30
2018-11-28T04:42:18.835Z,6.83
2018-11-28T04:44:46.053Z,8.80
2018-11-28T04:47:14.150Z,7.00
2018-11-28T04:49:40.577Z,8.50
2018-11-28T04:52:07.831Z,9.83
2018-11-28T04:54:35.094Z,11.03
2018-11-28T04:57:02.318Z,7.90
2018-11-28T04:59:29.562Z,6.60
2018-11-28T05:01:56.825Z,8.00
2018-11-28T05:04:24.089Z,8.17
2018-11-28T05:07:24.484Z,7.13
2018-11-28T05:09:51.807Z,8.43
2018-11-28T05:12:19.056Z,6.70
2018-11-28T05:14:46.358Z,7.33
2018-11-28T05:17:13.612Z,7.30
2018-11-28T05:19:40.829Z,8.80
2018-11-28T05:22:08.093Z,10.23
2018-11-28T05:24:35.319Z,7.63
2018-11-28T05:27:02.713Z,12.90
2018-11-28T05:29:30.023Z,8.80
2018-11-28T05:31:57.264Z,7.97
2018-11-28T05:34:24.493Z,9.30
2018-11-28T05:36:51.740Z,8.97
2018-11-28T05:39:18.998Z,9.20
2018-11-28T05:41:46.266Z,6.97
2018-11-28T05:44:13.533Z,6.73
2018-11-28T05:46:40.777Z,9.63
2018-11-28T05:49:08.007Z,13.40
2018-11-28T05:51:35.894Z,8.20
2018-11-28T05:54:02.565Z,9.77
2018-11-28T05:56:29.818Z,9.60
2018-11-28T05:58:57.076Z,9.63
2018-11-28T06:01:24.319Z,12.20
2018-11-28T06:03:51.563Z,6.83
2018-11-28T06:06:18.828Z,9.73
2018-11-28T06:08:46.057Z,10.33
2018-11-28T06:11:13.310Z,8.87
2018-11-28T06:13:40.582Z,7.30
2018-11-28T06:16:07.873Z,9.03
2018-11-28T06:18:35.105Z,6.20
2018-11-28T06:21:02.345Z,5.43
2018-11-28T06:23:29.566Z,8.83
2018-11-28T06:25:56.804Z,7.73
2018-11-28T06:28:24.078Z,6.47
2018-11-28T06:30:51.326Z,7.00
2018-11-28T06:33:18.537Z,11.00
2018-11-28T06:35:45.829Z,7.13
2018-11-28T06:38:13.061Z,7.33
2018-11-28T06:40:40.263Z,7.10
2018-11-28T06:43:07.529Z,7.27
2018-11-28T06:45:34.769Z,7.37
2018-11-28T06:48:02.029Z,6.93
2018-11-28T06:50:29.295Z,11.03
2018-11-28T06:52:56.528Z,8.57
2018-11-28T06:55:23.749Z,8.80
2018-11-28T06:57:51.052Z,9.90
2018-11-28T07:00:20.129Z,11.17
2018-11-28T07:02:48.347Z,11.40
2018-11-28T07:05:15.625Z,9.80
2018-11-28T07:07:42.865Z,7.40
2018-11-28T07:10:11.830Z,8.43
2018-11-28T07:12:39.112Z,9.33
2018-11-28T07:15:09.047Z,8.07
2018-11-28T07:17:36.269Z,8.83
2018-11-28T07:20:04.204Z,7.67
2018-11-28T07:22:31.421Z,7.67
2018-11-28T07:24:58.648Z,6.00
2018-11-28T07:27:25.925Z,7.00
2018-11-28T07:29:53.156Z,7.33
2018-11-28T07:32:20.399Z,6.13
2018-11-28T07:34:47.661Z,7.70
2018-11-28T07:37:14.877Z,9.53
2018-11-28T07:39:42.110Z,5.43
2018-11-28T07:42:09.359Z,8.47
2018-11-28T07:44:36.593Z,5.30
2018-11-28T07:47:03.824Z,6.40
2018-11-28T07:49:31.086Z,5.57
2018-11-28T07:51:58.376Z,5.27
2018-11-28T07:54:25.586Z,4.60
2018-11-28T07:56:53.730Z,8.43
2018-11-28T07:59:20.150Z,4.13
2018-11-28T08:01:47.383Z,4.27
2018-11-28T08:04:14.618Z,9.83
2018-11-28T08:06:41.876Z,5.83
2018-11-28T08:09:09.122Z,3.30
2018-11-28T08:11:36.382Z,5.07
2018-11-28T08:14:03.723Z,5.90
2018-11-28T08:16:30.960Z,7.07
2018-11-28T08:18:58.298Z,4.77
2018-11-28T08:21:25.546Z,5.80
2018-11-28T08:23:52.800Z,5.13
2018-11-28T08:26:20.062Z,6.80
2018-11-28T08:28:47.284Z,5.80
2018-11-28T08:31:14.583Z,4.20
2018-11-28T08:33:41.927Z,4.43
2018-11-28T08:36:09.165Z,4.20
2018-11-28T08:38:36.417Z,5.00
2018-11-28T08:41:03.773Z,4.17
2018-11-28T08:43:31.019Z,6.40
2018-11-28T08:45:58.249Z,4.60
2018-11-28T08:48:25.550Z,6.67
2018-11-28T08:50:52.798Z,7.00
2018-11-28T08:53:20.043Z,3.27
2018-11-28T08:55:47.285Z,3.17
2018-11-28T08:58:14.543Z,3.63
2018-11-28T09:00:41.764Z,4.13
2018-11-28T09:03:09.034Z,5.27
2018-11-28T09:05:36.264Z,2.77
2018-11-28T09:08:03.570Z,2.83
2018-11-28T09:10:30.841Z,2.83
2018-11-28T09:13:03.788Z,3.40
2018-11-28T09:15:26.323Z,2.40
2018-11-28T09:17:53.928Z,5.00
2018-11-28T09:20:21.176Z,3.83
2018-11-28T09:22:48.410Z,2.93
2018-11-28T09:25:16.499Z,4.80
2018-11-28T09:27:46.714Z,2.93
2018-11-28T09:30:15.109Z,4.77
2018-11-28T09:32:42.415Z,5.00
2018-11-28T09:35:10.561Z,3.07
2018-11-28T09:37:37.777Z,3.67
2018-11-28T09:40:08.752Z,3.90
2018-11-28T09:42:36.191Z,5.33
2018-11-28T09:45:03.569Z,2.33
2018-11-28T09:47:30.880Z,3.73
2018-11-28T09:49:58.095Z,2.23
2018-11-28T09:52:25.333Z,2.47
2018-11-28T09:54:52.614Z,2.50
2018-11-28T09:57:19.833Z,2.20
2018-11-28T09:59:47.042Z,15.50
2018-11-28T10:02:14.302Z,6.10
2018-11-28T10:04:41.528Z,3.00
2018-11-28T10:07:08.766Z,6.07
2018-11-28T10:09:36.071Z,2.40
2018-11-28T10:12:03.425Z,2.33
2018-11-28T10:14:30.701Z,2.63
2018-11-28T10:16:58.190Z,3.67
2018-11-28T10:19:25.226Z,2.50
2018-11-28T10:21:52.460Z,3.03
2018-11-28T10:24:19.862Z,3.70
2018-11-28T10:26:47.085Z,2.30
2018-11-28T10:29:14.301Z,2.37
2018-11-28T10:31:41.558Z,3.17
2018-11-28T10:34:08.787Z,3.87
2018-11-28T10:36:36.029Z,4.33
2018-11-28T10:39:05.522Z,3.47
2018-11-28T10:41:32.789Z,3.43
2018-11-28T10:44:00.037Z,2.43
2018-11-28T10:46:27.713Z,3.13
2018-11-28T10:48:54.585Z,2.90
2018-11-28T10:51:21.841Z,3.77
2018-11-28T10:53:49.117Z,3.30
2018-11-28T10:56:16.326Z,2.87
2018-11-28T10:58:43.566Z,3.37
2018-11-28T11:01:16.741Z,2.47
2018-11-28T11:03:49.698Z,4.70
2018-11-28T11:06:22.734Z,7.13
2018-11-28T11:08:55.761Z,2.93
2018-11-28T11:11:24.068Z,4.60
2018-11-28T11:13:57.532Z,5.20
2018-11-28T11:16:28.797Z,4.87
2018-11-28T11:18:56.749Z,3.97
2018-11-28T11:21:24.054Z,3.47
2018-11-28T11:23:51.325Z,3.57
2018-11-28T11:26:18.590Z,4.00
2018-11-28T11:28:45.849Z,4.57
2018-11-28T11:31:13.132Z,5.90
2018-11-28T11:33:40.390Z,2.90
2018-11-28T11:36:07.665Z,3.90
2018-11-28T11:38:34.910Z,4.00
2018-11-28T11:41:02.168Z,3.83
2018-11-28T11:43:29.404Z,3.57
2018-11-28T11:45:56.749Z,2.97
2018-11-28T11:48:23.990Z,2.60
2018-11-28T11:50:51.226Z,3.50
2018-11-28T11:53:18.585Z,4.43
2018-11-28T11:55:45.833Z,5.00
2018-11-28T11:58:13.072Z,2.30
2018-11-28T12:00:41.789Z,4.10
2018-11-28T12:03:11.269Z,3.03
2018-11-28T12:05:40.174Z,3.80
2018-11-28T12:08:07.575Z,4.40
2018-11-28T12:10:34.851Z,1.27
2018-11-28T12:13:02.095Z,4.13
2018-11-28T12:15:29.392Z,3.33
2018-11-28T12:17:56.670Z,4.67
2018-11-28T12:20:25.590Z,1.77
2018-11-28T12:22:52.937Z,3.50
2018-11-28T12:25:20.131Z,4.03
2018-11-28T12:27:47.344Z,4.87
2018-11-28T12:30:15.042Z,3.67
2018-11-28T12:32:42.765Z,10.63
2018-11-28T12:35:14.583Z,4.97
2018-11-28T12:37:41.873Z,4.90
2018-11-28T12:40:13.193Z,2.03
2018-11-28T12:42:41.364Z,3.50
2018-11-28T12:45:17.391Z,2.27
2018-11-28T12:47:45.386Z,4.60
2018-11-28T12:50:31.883Z,1.50
2018-11-28T12:53:00.373Z,2.57
2018-11-28T12:55:27.989Z,1.40
2018-11-28T12:57:55.862Z,1.60
2018-11-28T13:00:24.401Z,1.30
2018-11-28T13:02:51.697Z,1.00
2018-11-28T13:05:20.833Z,1.27
2018-11-28T13:07:48.091Z,1.17
2018-11-28T13:10:46.601Z,2.77
2018-11-28T13:13:13.881Z,1.07
2018-11-28T13:15:41.109Z,1.90
2018-11-28T13:18:09.250Z,2.47
2018-11-28T13:20:36.947Z,1.83
2018-11-28T13:23:04.473Z,2.53
2018-11-28T13:25:31.784Z,1.93
2018-11-28T13:27:59.065Z,2.00
2018-11-28T13:30:26.307Z,1.30
2018-11-28T13:32:54.272Z,1.17
2018-11-28T13:35:24.465Z,1.47
2018-11-28T13:37:56.012Z,1.67
2018-11-28T13:40:23.229Z,1.20
2018-11-28T13:42:50.477Z,2.83
2018-11-28T13:45:19.740Z,2.40
2018-11-28T13:47:48.368Z,2.20
2018-11-28T13:50:15.673Z,2.70
2018-11-28T13:52:42.932Z,2.40
2018-11-28T13:57:44.037Z,0.83
2018-11-28T14:00:11.922Z,1.03
2018-11-28T14:02:39.197Z,2.23
2018-11-28T14:05:09.057Z,1.83
2018-11-28T14:07:36.366Z,1.13
2018-11-28T14:10:06.473Z,0.50
2018-11-28T14:12:33.715Z,0.43
2018-11-28T14:15:00.939Z,0.83
2018-11-28T14:17:28.204Z,0.90
2018-11-28T14:19:55.422Z,0.43
2018-11-28T14:22:22.662Z,2.00
2018-11-28T14:24:49.903Z,0.80
2018-11-28T14:27:17.147Z,1.97
2018-11-28T14:29:44.418Z,2.30
2018-11-28T14:32:11.822Z,1.87
2018-11-28T14:34:39.078Z,1.83
2018-11-28T14:37:06.353Z,2.40
2018-11-28T14:39:34.274Z,0.93
2018-11-28T14:42:01.527Z,2.13
2018-11-28T14:44:28.769Z,1.80
2018-11-28T14:46:56.046Z,0.80
2018-11-28T14:49:23.267Z,1.20
2018-11-28T14:51:50.512Z,2.07
2018-11-28T14:54:17.782Z,0.63
2018-11-28T14:56:45.013Z,0.33
2018-11-28T14:59:12.896Z,2.97
2018-11-28T15:01:40.165Z,1.47
2018-11-28T15:04:07.401Z,1.10
2018-11-28T15:06:39.238Z,2.17
2018-11-28T15:09:14.716Z,1.17
2018-11-28T15:11:42.824Z,0.50
2018-11-28T15:14:10.076Z,0.70
2018-11-28T15:16:37.367Z,1.33
2018-11-28T15:19:04.977Z,2.80
2018-11-28T15:21:32.245Z,1.90
2018-11-28T15:23:59.533Z,1.23
2018-11-28T15:26:26.771Z,1.63
2018-11-28T15:28:53.996Z,1.60
2018-11-28T15:31:21.269Z,2.87
2018-11-28T15:33:48.523Z,1.17
2018-11-28T15:36:15.753Z,1.87
2018-11-28T15:38:43.007Z,1.77
2018-11-28T15:41:10.264Z,2.97
2018-11-28T15:43:37.525Z,0.90
2018-11-28T15:46:05.162Z,0.90
2018-11-28T15:48:32.446Z,1.13
2018-11-28T15:50:59.740Z,1.47
2018-11-28T15:53:27.029Z,1.70
2018-11-28T15:55:54.585Z,1.90
2018-11-28T15:58:21.819Z,1.23
2018-11-28T16:00:49.109Z,1.80
2018-11-28T16:03:16.393Z,1.10
2018-11-28T16:05:43.648Z,1.23
2018-11-28T16:08:10.901Z,1.57
2018-11-28T16:10:40.474Z,1.93
2018-11-28T16:13:07.777Z,2.43
2018-11-28T16:15:39.769Z,1.23
2018-11-28T16:18:06.980Z,2.77
2018-11-28T16:20:34.262Z,3.60
2018-11-28T16:23:04.251Z,2.87
2018-11-28T16:25:28.855Z,1.87
2018-11-28T16:27:56.089Z,2.13
2018-11-28T16:30:23.355Z,5.80
2018-11-28T16:32:50.580Z,3.10
2018-11-28T16:35:17.853Z,2.90
2018-11-28T16:37:45.157Z,1.93
2018-11-28T16:40:14.374Z,2.13
2018-11-28T16:42:41.660Z,3.50
2018-11-28T16:45:11.717Z,2.13
2018-11-28T16:47:39.025Z,4.43
2018-11-28T16:50:06.991Z,1.40
2018-11-28T16:52:34.289Z,2.50
2018-11-28T16:55:01.517Z,2.70
2018-11-28T16:57:28.764Z,2.57
2018-11-28T16:59:56.046Z,2.47
2018-11-28T17:02:23.321Z,4.60
2018-11-28T17:04:50.580Z,2.03
2018-11-28T17:07:17.831Z,2.23
2018-11-28T17:09:45.092Z,2.70
2018-11-28T17:12:12.341Z,0.77
2018-11-28T17:14:39.665Z,2.97
2018-11-28T17:17:06.897Z,1.60
2018-11-28T17:19:34.170Z,4.60
2018-11-28T17:22:01.424Z,1.97
2018-11-28T17:24:28.679Z,3.77
2018-11-28T17:26:55.909Z,2.63
2018-11-28T17:29:23.216Z,3.83
2018-11-28T17:31:50.457Z,3.40
2018-11-28T17:34:17.675Z,2.43
2018-11-28T17:36:44.928Z,0.77
2018-11-28T17:39:12.167Z,3.10
2018-11-28T17:41:39.760Z,3.70
2018-11-28T17:44:07.041Z,3.53
2018-11-28T17:46:34.299Z,3.57
2018-11-28T17:49:01.725Z,3.40
2018-11-28T17:51:28.984Z,4.60
2018-11-28T17:53:56.200Z,1.80
2018-11-28T17:56:23.436Z,1.80
2018-11-28T17:58:50.698Z,2.10
2018-11-28T18:01:17.939Z,1.83
2018-11-28T18:03:45.245Z,2.37
2018-11-28T18:06:12.529Z,1.13
2018-11-28T18:08:39.762Z,3.20
2018-11-28T18:11:10.314Z,1.47
2018-11-28T18:13:39.612Z,1.97
2018-11-28T18:16:05.631Z,2.40
2018-11-28T18:18:32.865Z,3.60
2018-11-28T18:21:00.173Z,2.77
2018-11-28T18:23:27.438Z,1.03
2018-11-28T18:25:54.794Z,1.60
2018-11-28T18:28:22.061Z,1.73
2018-11-28T18:30:49.279Z,1.63
2018-11-28T18:33:16.509Z,1.67
2018-11-28T18:35:43.835Z,2.10
2018-11-28T18:38:11.155Z,3.13
2018-11-28T18:40:38.453Z,1.43
2018-11-28T18:43:06.513Z,2.90
2018-11-28T18:45:36.396Z,1.17
2018-11-28T18:48:02.542Z,1.53
2018-11-28T18:50:29.878Z,3.33
2018-11-28T18:52:59.461Z,1.37
2018-11-28T18:55:26.724Z,1.23
2018-11-28T18:57:55.015Z,1.20
2018-11-28T19:00:23.433Z,1.07
2018-11-28T19:02:55.896Z,1.07
2018-11-28T19:05:23.247Z,1.57
2018-11-28T19:07:50.472Z,1.97
2018-11-28T19:10:19.682Z,2.10
2018-11-28T19:12:47.054Z,3.73
2018-11-28T19:15:19.636Z,0.97
2018-11-28T19:17:47.262Z,3.17
2018-11-28T19:20:15.421Z,2.47
2018-11-28T19:22:43.133Z,1.87
2018-11-28T19:25:11.622Z,1.90
2018-11-28T19:27:38.927Z,1.53
2018-11-28T19:30:10.097Z,2.27
2018-11-28T19:32:35.989Z,2.57
2018-11-28T19:35:03.345Z,1.33
2018-11-28T19:37:30.621Z,2.40
2018-11-28T19:39:57.906Z,2.83
2018-11-28T19:42:25.211Z,1.83
2018-11-28T19:44:52.511Z,1.83
2018-11-28T19:47:19.827Z,1.47
2018-11-28T19:49:47.087Z,2.23
2018-11-28T19:52:14.409Z,1.63
2018-11-28T19:54:41.661Z,2.13
2018-11-28T19:57:08.912Z,2.93
2018-11-28T19:59:36.171Z,3.50
2018-11-28T20:02:03.749Z,3.27
2018-11-28T20:04:30.991Z,1.77
2018-11-28T20:06:58.261Z,2.13
2018-11-28T20:09:25.638Z,1.67
2018-11-28T20:11:52.881Z,2.80
2018-11-28T20:14:20.321Z,2.13
2018-11-28T20:16:47.592Z,4.60
2018-11-28T20:19:17.546Z,2.93
2018-11-28T20:21:42.146Z,3.40
2018-11-28T20:24:09.405Z,3.30
2018-11-28T20:26:36.679Z,4.77
2018-11-28T20:29:04.337Z,3.03
2018-11-28T20:31:31.665Z,5.10
2018-11-28T20:33:58.943Z,3.80
2018-11-28T20:36:26.201Z,2.73
2018-11-28T20:38:53.614Z,2.70
2018-11-28T20:41:20.957Z,4.80
2018-11-28T20:43:48.238Z,3.43
2018-11-28T20:46:15.485Z,6.07
2018-11-28T20:48:42.733Z,6.33
2018-11-28T20:51:10.024Z,4.57
2018-11-28T20:53:37.241Z,5.13
2018-11-28T20:56:04.525Z,2.83
2018-11-28T20:58:31.804Z,3.57
2018-11-28T21:00:59.062Z,6.33
2018-11-28T21:03:26.369Z,4.20
2018-11-28T21:05:53.657Z,5.77
2018-11-28T21:08:20.964Z,3.50
2018-11-28T21:10:48.213Z,4.37
2018-11-28T21:13:15.483Z,7.00
2018-11-28T21:15:43.937Z,6.50
2018-11-28T21:18:11.224Z,7.70
2018-11-28T21:20:39.612Z,5.90
2018-11-28T21:23:16.042Z,7.20
2018-11-28T21:25:43.367Z,8.20
2018-11-28T21:28:10.609Z,6.40
2018-11-28T21:30:37.889Z,8.87
2018-11-28T21:33:06.652Z,7.93
2018-11-28T21:35:35.597Z,8.33
2018-11-28T21:38:02.847Z,5.87
2018-11-28T21:40:30.119Z,7.80
2018-11-28T21:42:57.347Z,8.70
2018-11-28T21:45:25.160Z,10.97
2018-11-28T21:47:52.488Z,9.97
2018-11-28T21:50:19.758Z,7.60
2018-11-28T21:52:47.180Z,6.83
2018-11-28T21:55:15.460Z,9.90
2018-11-28T21:57:42.738Z,7.37
2018-11-28T22:00:12.032Z,9.20
2018-11-28T22:02:39.365Z,9.30
2018-11-28T22:05:08.049Z,9.43
2018-11-28T22:07:35.328Z,8.13
2018-11-28T22:10:03.640Z,12.50
2018-11-28T22:12:30.880Z,10.30
2018-11-28T22:14:58.125Z,10.77
2018-11-28T22:17:25.377Z,9.50
2018-11-28T22:19:52.647Z,10.57
2018-11-28T22:22:19.929Z,13.80
2018-11-28T22:24:47.236Z,9.70
2018-11-28T22:27:14.512Z,15.03
2018-11-28T22:29:41.744Z,14.63
2018-11-28T22:32:09.006Z,16.93
2018-11-28T22:34:36.224Z,16.07
2018-11-28T22:37:03.480Z,17.93
2018-11-28T22:39:30.737Z,17.83
2018-11-28T22:41:57.979Z,14.37
2018-11-28T22:44:25.210Z,20.33
2018-11-28T22:46:52.497Z,17.43
2018-11-28T22:49:19.759Z,22.07
2018-11-28T22:51:47.025Z,20.33
2018-11-28T22:54:14.320Z,21.20
2018-11-28T22:56:41.582Z,22.90
2018-11-28T22:59:08.819Z,18.43
2018-11-28T23:01:47.221Z,21.33
2018-11-28T23:04:14.456Z,20.63
2018-11-28T23:06:41.708Z,23.33
2018-11-28T23:09:09.014Z,18.93
2018-11-28T23:11:36.247Z,20.70
2018-11-28T23:14:03.473Z,21.63
2018-11-28T23:16:30.753Z,21.27
2018-11-28T23:18:57.996Z,23.07
2018-11-28T23:21:25.872Z,19.17
2018-11-28T23:23:53.158Z,20.33
2018-11-28T23:26:20.382Z,23.53
2018-11-28T23:28:47.625Z,21.77
2018-11-28T23:31:14.908Z,18.93
2018-11-28T23:33:42.139Z,21.53
2018-11-28T23:36:09.425Z,23.43
2018-11-28T23:38:36.753Z,26.80
2018-11-28T23:41:04.309Z,25.70
2018-11-28T23:43:31.593Z,23.73
2018-11-28T23:45:58.848Z,21.60
2018-11-28T23:48:26.096Z,26.27
2018-11-28T23:50:53.354Z,26.77
2018-11-28T23:53:20.659Z,30.80
2018-11-28T23:55:47.897Z,32.83
2018-11-28T23:58:15.150Z,28.40
